sensor_id;sensor_type;location;lat;lon;timestamp;pressure;altitude;pressure_sealevel;temperature;humidity
7834;BME280;3962;42.696;23.354;2023-01-27T00:00:16;94358.00;;;0.57;98.50
7834;BME280;3962;42.696;23.354;2023-01-27T00:02:43;94349.94;;;0.60;98.08
7834;BME280;3962;42.696;23.354;2023-01-27T00:05:12;94352.34;;;0.63;99.03
7834;BME280;3962;42.696;23.354;2023-01-27T00:07:39;94356.28;;;0.69;98.09
7834;BME280;3962;42.696;23.354;2023-01-27T00:10:11;94353.66;;;0.69;99.25
7834;BME280;3962;42.696;23.354;2023-01-27T00:12:39;94345.81;;;0.69;98.20
7834;BME280;3962;42.696;23.354;2023-01-27T00:15:25;94341.31;;;0.71;97.63
7834;BME280;3962;42.696;23.354;2023-01-27T00:17:51;94343.31;;;0.67;97.77
7834;BME280;3962;42.696;23.354;2023-01-27T00:20:18;94337.81;;;0.59;97.97
7834;BME280;3962;42.696;23.354;2023-01-27T00:23:13;94339.25;;;0.63;97.70
7834;BME280;3962;42.696;23.354;2023-01-27T00:25:58;94321.03;;;0.62;97.61
7834;BME280;3962;42.696;23.354;2023-01-27T00:28:26;94313.91;;;0.64;98.07
7834;BME280;3962;42.696;23.354;2023-01-27T00:30:57;94320.41;;;0.58;97.89
7834;BME280;3962;42.696;23.354;2023-01-27T00:33:24;94313.69;;;0.67;99.54
7834;BME280;3962;42.696;23.354;2023-01-27T00:35:58;94303.78;;;0.59;98.79
7834;BME280;3962;42.696;23.354;2023-01-27T00:38:26;94316.53;;;0.64;99.31
7834;BME280;3962;42.696;23.354;2023-01-27T00:40:53;94330.44;;;0.64;99.78
7834;BME280;3962;42.696;23.354;2023-01-27T00:43:38;94325.09;;;0.66;99.13
7834;BME280;3962;42.696;23.354;2023-01-27T00:46:06;94315.16;;;0.71;100.00
7834;BME280;3962;42.696;23.354;2023-01-27T00:48:33;94317.78;;;0.82;100.00
7834;BME280;3962;42.696;23.354;2023-01-27T00:51:00;94329.94;;;0.83;99.40
7834;BME280;3962;42.696;23.354;2023-01-27T00:53:27;94340.41;;;0.83;99.09
7834;BME280;3962;42.696;23.354;2023-01-27T00:55:54;94342.78;;;0.86;98.54
7834;BME280;3962;42.696;23.354;2023-01-27T00:58:22;94313.38;;;0.82;98.31
7834;BME280;3962;42.696;23.354;2023-01-27T01:00:51;94323.31;;;0.90;99.19
7834;BME280;3962;42.696;23.354;2023-01-27T01:03:20;94321.63;;;0.89;98.66
7834;BME280;3962;42.696;23.354;2023-01-27T01:05:46;94321.41;;;0.92;98.23
7834;BME280;3962;42.696;23.354;2023-01-27T01:08:13;94319.84;;;0.89;97.73
7834;BME280;3962;42.696;23.354;2023-01-27T01:10:40;94311.88;;;0.91;97.67
7834;BME280;3962;42.696;23.354;2023-01-27T01:13:07;94313.09;;;0.98;98.06
7834;BME280;3962;42.696;23.354;2023-01-27T01:15:36;94311.06;;;1.01;98.16
7834;BME280;3962;42.696;23.354;2023-01-27T01:18:04;94322.16;;;1.05;97.56
7834;BME280;3962;42.696;23.354;2023-01-27T01:20:37;94298.78;;;0.91;97.37
7834;BME280;3962;42.696;23.354;2023-01-27T01:23:04;94314.03;;;0.97;97.49
7834;BME280;3962;42.696;23.354;2023-01-27T01:25:31;94324.47;;;0.86;97.62
7834;BME280;3962;42.696;23.354;2023-01-27T01:27:58;94321.84;;;0.86;97.14
7834;BME280;3962;42.696;23.354;2023-01-27T01:30:24;94317.63;;;0.96;98.74
7834;BME280;3962;42.696;23.354;2023-01-27T01:32:52;94314.25;;;0.94;97.41
7834;BME280;3962;42.696;23.354;2023-01-27T01:35:19;94316.00;;;0.82;98.11
7834;BME280;3962;42.696;23.354;2023-01-27T01:37:47;94315.88;;;0.73;97.76
7834;BME280;3962;42.696;23.354;2023-01-27T01:40:14;94327.75;;;0.77;97.65
7834;BME280;3962;42.696;23.354;2023-01-27T01:42:48;94334.28;;;0.71;97.69
7834;BME280;3962;42.696;23.354;2023-01-27T01:45:47;94340.03;;;0.76;98.38
7834;BME280;3962;42.696;23.354;2023-01-27T01:48:18;94338.28;;;0.88;98.70
7834;BME280;3962;42.696;23.354;2023-01-27T01:50:50;94331.09;;;1.02;97.77
7834;BME280;3962;42.696;23.354;2023-01-27T01:53:20;94326.44;;;1.06;97.98
7834;BME280;3962;42.696;23.354;2023-01-27T01:55:54;94322.63;;;0.99;97.46
7834;BME280;3962;42.696;23.354;2023-01-27T01:58:22;94315.09;;;0.94;97.86
7834;BME280;3962;42.696;23.354;2023-01-27T02:00:53;94311.25;;;0.87;98.41
7834;BME280;3962;42.696;23.354;2023-01-27T02:03:20;94302.34;;;0.90;98.36
7834;BME280;3962;42.696;23.354;2023-01-27T02:05:48;94304.13;;;0.89;97.58
7834;BME280;3962;42.696;23.354;2023-01-27T02:08:18;94274.94;;;0.83;98.58
7834;BME280;3962;42.696;23.354;2023-01-27T02:10:47;94287.25;;;0.93;98.93
7834;BME280;3962;42.696;23.354;2023-01-27T02:13:14;94280.00;;;0.97;99.16
7834;BME280;3962;42.696;23.354;2023-01-27T02:15:41;94271.56;;;1.04;98.28
7834;BME280;3962;42.696;23.354;2023-01-27T02:18:08;94265.59;;;1.02;99.36
7834;BME280;3962;42.696;23.354;2023-01-27T02:20:39;94259.56;;;1.13;98.44
7834;BME280;3962;42.696;23.354;2023-01-27T02:23:18;94262.19;;;1.13;98.63
7834;BME280;3962;42.696;23.354;2023-01-27T02:25:52;94257.66;;;1.15;98.88
7834;BME280;3962;42.696;23.354;2023-01-27T02:28:20;94250.03;;;1.12;97.84
7834;BME280;3962;42.696;23.354;2023-01-27T02:30:47;94253.00;;;1.07;98.36
7834;BME280;3962;42.696;23.354;2023-01-27T02:33:14;94257.84;;;1.01;98.32
7834;BME280;3962;42.696;23.354;2023-01-27T02:35:45;94263.22;;;0.99;97.43
7834;BME280;3962;42.696;23.354;2023-01-27T02:38:15;94259.59;;;0.89;98.41
7834;BME280;3962;42.696;23.354;2023-01-27T02:40:43;94257.34;;;0.85;97.49
7834;BME280;3962;42.696;23.354;2023-01-27T02:43:13;94255.66;;;0.84;98.67
7834;BME280;3962;42.696;23.354;2023-01-27T02:45:40;94260.19;;;0.82;97.75
7834;BME280;3962;42.696;23.354;2023-01-27T02:48:07;94264.84;;;0.89;97.99
7834;BME280;3962;42.696;23.354;2023-01-27T02:50:33;94265.81;;;0.88;98.97
7834;BME280;3962;42.696;23.354;2023-01-27T02:53:00;94278.63;;;0.80;98.95
7834;BME280;3962;42.696;23.354;2023-01-27T02:55:27;94276.28;;;0.88;99.84
7834;BME280;3962;42.696;23.354;2023-01-27T02:57:54;94270.66;;;0.82;99.40
7834;BME280;3962;42.696;23.354;2023-01-27T03:00:22;94268.69;;;0.62;99.96
7834;BME280;3962;42.696;23.354;2023-01-27T03:02:49;94274.78;;;0.73;100.00
7834;BME280;3962;42.696;23.354;2023-01-27T03:05:16;94266.75;;;0.87;100.00
7834;BME280;3962;42.696;23.354;2023-01-27T03:07:42;94264.84;;;0.89;100.00
7834;BME280;3962;42.696;23.354;2023-01-27T03:10:10;94260.81;;;0.85;99.60
7834;BME280;3962;42.696;23.354;2023-01-27T03:12:36;94245.47;;;0.92;99.57
7834;BME280;3962;42.696;23.354;2023-01-27T03:15:04;94248.31;;;1.00;99.14
7834;BME280;3962;42.696;23.354;2023-01-27T03:17:50;94245.97;;;1.08;100.00
7834;BME280;3962;42.696;23.354;2023-01-27T03:20:35;94232.50;;;1.12;98.93
7834;BME280;3962;42.696;23.354;2023-01-27T03:23:02;94228.13;;;1.13;99.36
7834;BME280;3962;42.696;23.354;2023-01-27T03:25:28;94237.16;;;1.09;98.60
7834;BME280;3962;42.696;23.354;2023-01-27T03:27:55;94230.16;;;1.09;98.66
7834;BME280;3962;42.696;23.354;2023-01-27T03:30:22;94224.06;;;1.09;98.42
7834;BME280;3962;42.696;23.354;2023-01-27T03:32:50;94223.69;;;1.13;98.13
7834;BME280;3962;42.696;23.354;2023-01-27T03:35:17;94217.53;;;1.14;99.04
7834;BME280;3962;42.696;23.354;2023-01-27T03:37:44;94207.63;;;1.18;98.20
7834;BME280;3962;42.696;23.354;2023-01-27T03:40:28;94204.44;;;1.14;98.12
7834;BME280;3962;42.696;23.354;2023-01-27T03:43:12;94200.97;;;1.03;98.65
7834;BME280;3962;42.696;23.354;2023-01-27T03:45:56;94192.97;;;0.93;98.97
7834;BME280;3962;42.696;23.354;2023-01-27T03:48:46;94192.38;;;0.90;99.78
7834;BME280;3962;42.696;23.354;2023-01-27T03:51:14;94184.94;;;0.62;99.46
7834;BME280;3962;42.696;23.354;2023-01-27T03:53:41;94192.22;;;0.69;99.76
7834;BME280;3962;42.696;23.354;2023-01-27T03:56:08;94202.09;;;0.66;100.00
7834;BME280;3962;42.696;23.354;2023-01-27T03:58:36;94199.91;;;0.60;100.00
7834;BME280;3962;42.696;23.354;2023-01-27T04:01:05;94191.81;;;0.52;100.00
7834;BME280;3962;42.696;23.354;2023-01-27T04:03:34;94197.16;;;0.50;100.00
7834;BME280;3962;42.696;23.354;2023-01-27T04:06:22;94211.59;;;0.67;100.00
7834;BME280;3962;42.696;23.354;2023-01-27T04:09:08;94230.28;;;0.73;100.00
7834;BME280;3962;42.696;23.354;2023-01-27T04:11:35;94241.88;;;0.82;100.00
7834;BME280;3962;42.696;23.354;2023-01-27T04:14:21;94255.59;;;0.96;99.72
7834;BME280;3962;42.696;23.354;2023-01-27T04:16:49;94267.28;;;1.03;100.00
7834;BME280;3962;42.696;23.354;2023-01-27T04:19:17;94270.84;;;1.02;99.49
7834;BME280;3962;42.696;23.354;2023-01-27T04:21:45;94273.13;;;1.07;98.58
7834;BME280;3962;42.696;23.354;2023-01-27T04:24:14;94262.13;;;1.02;98.33
7834;BME280;3962;42.696;23.354;2023-01-27T04:26:48;94245.25;;;1.06;98.08
7834;BME280;3962;42.696;23.354;2023-01-27T04:29:15;94264.31;;;1.08;97.08
7834;BME280;3962;42.696;23.354;2023-01-27T04:31:43;94272.06;;;1.20;96.33
7834;BME280;3962;42.696;23.354;2023-01-27T04:34:10;94293.88;;;1.21;96.36
7834;BME280;3962;42.696;23.354;2023-01-27T04:36:37;94291.59;;;1.16;95.68
7834;BME280;3962;42.696;23.354;2023-01-27T04:39:06;94283.59;;;1.18;95.28
7834;BME280;3962;42.696;23.354;2023-01-27T04:41:33;94283.75;;;1.27;94.95
7834;BME280;3962;42.696;23.354;2023-01-27T04:44:01;94282.94;;;1.27;95.90
7834;BME280;3962;42.696;23.354;2023-01-27T04:46:28;94289.22;;;1.24;95.69
7834;BME280;3962;42.696;23.354;2023-01-27T04:48:55;94272.06;;;1.20;96.01
7834;BME280;3962;42.696;23.354;2023-01-27T04:51:22;94276.72;;;1.28;96.02
7834;BME280;3962;42.696;23.354;2023-01-27T04:53:49;94274.94;;;1.28;95.23
7834;BME280;3962;42.696;23.354;2023-01-27T04:56:25;94290.09;;;1.36;95.18
7834;BME280;3962;42.696;23.354;2023-01-27T04:58:52;94283.03;;;1.25;95.21
7834;BME280;3962;42.696;23.354;2023-01-27T05:01:19;94292.91;;;1.22;96.63
7834;BME280;3962;42.696;23.354;2023-01-27T05:03:46;94287.81;;;1.31;95.82
7834;BME280;3962;42.696;23.354;2023-01-27T05:06:13;94294.34;;;1.26;96.44
7834;BME280;3962;42.696;23.354;2023-01-27T05:08:39;94288.53;;;1.22;96.58
7834;BME280;3962;42.696;23.354;2023-01-27T05:11:06;94291.50;;;1.29;96.95
7834;BME280;3962;42.696;23.354;2023-01-27T05:13:34;94292.91;;;1.33;97.03
7834;BME280;3962;42.696;23.354;2023-01-27T05:16:10;94278.97;;;1.21;97.19
7834;BME280;3962;42.696;23.354;2023-01-27T05:18:37;94271.59;;;1.26;98.25
7834;BME280;3962;42.696;23.354;2023-01-27T05:21:05;94283.28;;;1.22;97.49
7834;BME280;3962;42.696;23.354;2023-01-27T05:23:33;94290.28;;;1.11;98.00
7834;BME280;3962;42.696;23.354;2023-01-27T05:26:04;94286.47;;;0.80;98.37
7834;BME280;3962;42.696;23.354;2023-01-27T05:28:33;94270.13;;;0.66;100.00
7834;BME280;3962;42.696;23.354;2023-01-27T05:31:05;94264.28;;;0.62;100.00
7834;BME280;3962;42.696;23.354;2023-01-27T05:33:32;94266.50;;;0.79;100.00
7834;BME280;3962;42.696;23.354;2023-01-27T05:36:01;94260.19;;;0.82;100.00
7834;BME280;3962;42.696;23.354;2023-01-27T05:38:28;94268.31;;;1.01;100.00
7834;BME280;3962;42.696;23.354;2023-01-27T05:40:56;94263.47;;;1.07;100.00
7834;BME280;3962;42.696;23.354;2023-01-27T05:43:24;94241.78;;;1.05;100.00
7834;BME280;3962;42.696;23.354;2023-01-27T05:45:51;94247.88;;;1.06;100.00
7834;BME280;3962;42.696;23.354;2023-01-27T05:48:19;94246.69;;;1.10;100.00
7834;BME280;3962;42.696;23.354;2023-01-27T05:50:53;94252.34;;;0.93;100.00
7834;BME280;3962;42.696;23.354;2023-01-27T05:53:20;94255.97;;;1.03;100.00
7834;BME280;3962;42.696;23.354;2023-01-27T05:55:48;94262.88;;;1.04;100.00
7834;BME280;3962;42.696;23.354;2023-01-27T05:58:15;94258.09;;;0.98;100.00
7834;BME280;3962;42.696;23.354;2023-01-27T06:00:42;94254.13;;;0.81;100.00
7834;BME280;3962;42.696;23.354;2023-01-27T06:03:09;94276.09;;;1.02;100.00
7834;BME280;3962;42.696;23.354;2023-01-27T06:05:37;94279.91;;;1.09;100.00
7834;BME280;3962;42.696;23.354;2023-01-27T06:08:04;94270.03;;;0.67;99.35
7834;BME280;3962;42.696;23.354;2023-01-27T06:10:31;94278.63;;;0.80;99.90
7834;BME280;3962;42.696;23.354;2023-01-27T06:13:02;94262.84;;;0.93;100.00
7834;BME280;3962;42.696;23.354;2023-01-27T06:15:29;94259.94;;;0.74;99.03
7834;BME280;3962;42.696;23.354;2023-01-27T06:17:56;94270.78;;;0.80;99.68
7834;BME280;3962;42.696;23.354;2023-01-27T06:20:23;94266.72;;;0.76;99.63
7834;BME280;3962;42.696;23.354;2023-01-27T06:22:51;94273.38;;;0.80;99.58
7834;BME280;3962;42.696;23.354;2023-01-27T06:25:18;94275.13;;;0.69;99.51
7834;BME280;3962;42.696;23.354;2023-01-27T06:27:45;94277.28;;;0.64;99.60
7834;BME280;3962;42.696;23.354;2023-01-27T06:30:13;94262.28;;;0.66;99.78
7834;BME280;3962;42.696;23.354;2023-01-27T06:32:39;94279.03;;;0.87;100.00
7834;BME280;3962;42.696;23.354;2023-01-27T06:35:07;94278.34;;;0.96;99.39
7834;BME280;3962;42.696;23.354;2023-01-27T06:37:33;94272.59;;;0.91;98.65
7834;BME280;3962;42.696;23.354;2023-01-27T06:40:02;94277.72;;;0.92;99.51
7834;BME280;3962;42.696;23.354;2023-01-27T06:42:30;94277.19;;;1.11;98.67
7834;BME280;3962;42.696;23.354;2023-01-27T06:44:57;94288.00;;;1.06;98.36
7834;BME280;3962;42.696;23.354;2023-01-27T06:47:23;94281.47;;;1.23;98.80
7834;BME280;3962;42.696;23.354;2023-01-27T06:49:50;94286.72;;;1.12;98.45
7834;BME280;3962;42.696;23.354;2023-01-27T06:52:17;94293.47;;;1.03;97.73
7834;BME280;3962;42.696;23.354;2023-01-27T06:54:43;94294.34;;;0.80;98.63
7834;BME280;3962;42.696;23.354;2023-01-27T06:57:12;94295.47;;;1.00;99.01
7834;BME280;3962;42.696;23.354;2023-01-27T06:59:40;94296.44;;;0.99;98.52
7834;BME280;3962;42.696;23.354;2023-01-27T07:02:09;94303.84;;;0.81;97.15
7834;BME280;3962;42.696;23.354;2023-01-27T07:04:37;94301.31;;;1.03;97.56
7834;BME280;3962;42.696;23.354;2023-01-27T07:07:04;94301.41;;;1.02;97.50
7834;BME280;3962;42.696;23.354;2023-01-27T07:09:31;94300.97;;;1.08;96.16
7834;BME280;3962;42.696;23.354;2023-01-27T07:11:57;94310.13;;;1.02;96.50
7834;BME280;3962;42.696;23.354;2023-01-27T07:14:26;94309.63;;;1.54;98.68
7834;BME280;3962;42.696;23.354;2023-01-27T07:16:52;94313.81;;;2.65;97.69
7834;BME280;3962;42.696;23.354;2023-01-27T07:19:19;94296.28;;;2.23;94.79
7834;BME280;3962;42.696;23.354;2023-01-27T07:21:46;94293.56;;;1.69;93.96
7834;BME280;3962;42.696;23.354;2023-01-27T07:24:12;94292.25;;;1.64;93.58
7834;BME280;3962;42.696;23.354;2023-01-27T07:26:39;94300.22;;;1.40;93.44
7834;BME280;3962;42.696;23.354;2023-01-27T07:29:08;94299.72;;;1.24;93.92
7834;BME280;3962;42.696;23.354;2023-01-27T07:31:36;94298.88;;;1.24;94.32
7834;BME280;3962;42.696;23.354;2023-01-27T07:34:03;94297.88;;;1.03;94.51
7834;BME280;3962;42.696;23.354;2023-01-27T07:36:29;94299.81;;;1.23;95.13
7834;BME280;3962;42.696;23.354;2023-01-27T07:38:56;94304.75;;;1.49;95.88
7834;BME280;3962;42.696;23.354;2023-01-27T07:41:23;94306.50;;;1.27;94.40
7834;BME280;3962;42.696;23.354;2023-01-27T07:43:50;94297.09;;;1.24;94.78
7834;BME280;3962;42.696;23.354;2023-01-27T07:46:17;94301.22;;;1.16;94.95
7834;BME280;3962;42.696;23.354;2023-01-27T07:48:45;94310.41;;;1.21;95.44
7834;BME280;3962;42.696;23.354;2023-01-27T07:51:13;94301.00;;;1.19;93.71
7834;BME280;3962;42.696;23.354;2023-01-27T07:53:41;94293.72;;;1.11;93.86
7834;BME280;3962;42.696;23.354;2023-01-27T07:56:08;94311.19;;;1.00;93.99
7834;BME280;3962;42.696;23.354;2023-01-27T07:58:36;94305.59;;;1.04;94.08
7834;BME280;3962;42.696;23.354;2023-01-27T08:01:04;94301.22;;;1.05;92.89
7834;BME280;3962;42.696;23.354;2023-01-27T08:03:31;94300.97;;;1.08;93.01
7834;BME280;3962;42.696;23.354;2023-01-27T08:06:03;94297.28;;;0.99;93.50
7834;BME280;3962;42.696;23.354;2023-01-27T08:08:30;94308.03;;;1.18;92.32
7834;BME280;3962;42.696;23.354;2023-01-27T08:10:58;94308.53;;;1.23;92.16
7834;BME280;3962;42.696;23.354;2023-01-27T08:13:25;94307.78;;;1.21;92.60
7834;BME280;3962;42.696;23.354;2023-01-27T08:15:54;94308.22;;;1.04;92.90
7834;BME280;3962;42.696;23.354;2023-01-27T08:18:22;94299.75;;;1.01;92.21
7834;BME280;3962;42.696;23.354;2023-01-27T08:20:49;94300.94;;;0.97;92.69
7834;BME280;3962;42.696;23.354;2023-01-27T08:23:19;94286.75;;;0.88;92.14
7834;BME280;3962;42.696;23.354;2023-01-27T08:25:49;94303.16;;;0.90;93.84
7834;BME280;3962;42.696;23.354;2023-01-27T08:28:16;94297.75;;;1.04;93.93
7834;BME280;3962;42.696;23.354;2023-01-27T08:30:43;94311.09;;;1.12;93.45
7834;BME280;3962;42.696;23.354;2023-01-27T08:33:12;94306.72;;;1.13;91.94
7834;BME280;3962;42.696;23.354;2023-01-27T08:35:39;94299.66;;;1.02;91.89
7834;BME280;3962;42.696;23.354;2023-01-27T08:38:09;94307.78;;;1.21;92.64
7834;BME280;3962;42.696;23.354;2023-01-27T08:40:38;94317.97;;;1.37;92.07
7834;BME280;3962;42.696;23.354;2023-01-27T08:43:05;94312.47;;;1.29;92.37
7834;BME280;3962;42.696;23.354;2023-01-27T08:45:33;94313.16;;;1.20;91.73
7834;BME280;3962;42.696;23.354;2023-01-27T08:48:00;94321.13;;;1.18;91.96
7834;BME280;3962;42.696;23.354;2023-01-27T08:50:28;94318.16;;;1.23;92.44
7834;BME280;3962;42.696;23.354;2023-01-27T08:52:55;94307.47;;;1.37;92.60
7834;BME280;3962;42.696;23.354;2023-01-27T08:55:24;94315.78;;;1.31;91.60
7834;BME280;3962;42.696;23.354;2023-01-27T08:57:52;94316.16;;;1.26;92.40
7834;BME280;3962;42.696;23.354;2023-01-27T09:00:20;94297.09;;;1.35;92.11
7834;BME280;3962;42.696;23.354;2023-01-27T09:02:47;94305.09;;;1.56;91.49
7834;BME280;3962;42.696;23.354;2023-01-27T09:05:15;94312.97;;;1.56;91.95
7834;BME280;3962;42.696;23.354;2023-01-27T09:07:43;94314.50;;;1.36;90.22
7834;BME280;3962;42.696;23.354;2023-01-27T09:10:10;94311.31;;;1.44;90.57
7834;BME280;3962;42.696;23.354;2023-01-27T09:12:37;94312.25;;;1.65;90.68
7834;BME280;3962;42.696;23.354;2023-01-27T09:15:07;94302.97;;;1.61;91.20
7834;BME280;3962;42.696;23.354;2023-01-27T09:17:34;94305.59;;;1.61;89.92
7834;BME280;3962;42.696;23.354;2023-01-27T09:20:00;94315.84;;;1.53;90.99
7834;BME280;3962;42.696;23.354;2023-01-27T09:22:27;94309.59;;;1.32;91.73
7834;BME280;3962;42.696;23.354;2023-01-27T09:24:54;94307.38;;;1.38;92.37
7834;BME280;3962;42.696;23.354;2023-01-27T09:27:21;94297.63;;;1.62;91.70
7834;BME280;3962;42.696;23.354;2023-01-27T09:29:47;94292.81;;;1.45;90.99
7834;BME280;3962;42.696;23.354;2023-01-27T09:32:15;94297.00;;;1.48;91.91
7834;BME280;3962;42.696;23.354;2023-01-27T09:34:42;94292.59;;;1.59;90.99
7834;BME280;3962;42.696;23.354;2023-01-27T09:37:10;94283.78;;;1.60;91.62
7834;BME280;3962;42.696;23.354;2023-01-27T09:39:43;94278.28;;;1.41;91.83
7834;BME280;3962;42.696;23.354;2023-01-27T09:45:23;94263.19;;;1.34;92.58
7834;BME280;3962;42.696;23.354;2023-01-27T09:48:07;94271.03;;;1.45;91.65
7834;BME280;3962;42.696;23.354;2023-01-27T09:50:42;94276.16;;;1.46;91.84
7834;BME280;3962;42.696;23.354;2023-01-27T09:53:47;94272.56;;;1.36;91.50
7834;BME280;3962;42.696;23.354;2023-01-27T09:56:22;94270.63;;;1.16;92.78
7834;BME280;3962;42.696;23.354;2023-01-27T09:59:07;94270.06;;;1.35;92.88
7834;BME280;3962;42.696;23.354;2023-01-27T10:01:47;94259.59;;;1.57;92.38
7834;BME280;3962;42.696;23.354;2023-01-27T10:04:37;94252.69;;;1.78;92.85
7834;BME280;3962;42.696;23.354;2023-01-27T10:07:21;94252.31;;;1.60;92.22
7834;BME280;3962;42.696;23.354;2023-01-27T10:10:02;94257.22;;;1.54;91.94
7834;BME280;3962;42.696;23.354;2023-01-27T10:12:53;94254.47;;;1.33;92.43
7834;BME280;3962;42.696;23.354;2023-01-27T10:15:34;94246.50;;;1.35;93.21
7834;BME280;3962;42.696;23.354;2023-01-27T10:18:18;94239.69;;;1.32;92.13
7834;BME280;3962;42.696;23.354;2023-01-27T10:20:57;94246.13;;;1.50;92.87
7834;BME280;3962;42.696;23.354;2023-01-27T10:23:36;94256.13;;;1.45;92.23
7834;BME280;3962;42.696;23.354;2023-01-27T10:26:17;94253.53;;;1.56;92.31
7834;BME280;3962;42.696;23.354;2023-01-27T10:28:49;94254.97;;;1.38;92.51
7834;BME280;3962;42.696;23.354;2023-01-27T10:31:21;94256.59;;;1.28;91.73
7834;BME280;3962;42.696;23.354;2023-01-27T10:33:52;94241.69;;;1.18;92.29
7834;BME280;3962;42.696;23.354;2023-01-27T10:36:25;94245.28;;;1.39;93.44
7834;BME280;3962;42.696;23.354;2023-01-27T10:39:02;94241.97;;;1.48;92.90
7834;BME280;3962;42.696;23.354;2023-01-27T10:41:43;94245.63;;;1.45;92.29
7834;BME280;3962;42.696;23.354;2023-01-27T10:44:24;94239.56;;;1.23;91.92
7834;BME280;3962;42.696;23.354;2023-01-27T10:47:01;94244.56;;;1.48;93.06
7834;BME280;3962;42.696;23.354;2023-01-27T10:49:35;94244.44;;;1.60;92.22
7834;BME280;3962;42.696;23.354;2023-01-27T10:52:10;94232.69;;;1.44;92.01
7834;BME280;3962;42.696;23.354;2023-01-27T10:54:41;94222.44;;;1.19;91.11
7834;BME280;3962;42.696;23.354;2023-01-27T10:57:17;94224.56;;;1.25;91.94
7834;BME280;3962;42.696;23.354;2023-01-27T10:59:50;94224.56;;;1.36;92.32
7834;BME280;3962;42.696;23.354;2023-01-27T11:02:21;94235.31;;;1.44;91.88
7834;BME280;3962;42.696;23.354;2023-01-27T11:04:53;94241.25;;;1.46;91.75
7834;BME280;3962;42.696;23.354;2023-01-27T11:07:25;94235.78;;;1.27;91.54
7834;BME280;3962;42.696;23.354;2023-01-27T11:09:54;94232.53;;;1.45;92.68
7834;BME280;3962;42.696;23.354;2023-01-27T11:12:28;94235.19;;;1.56;92.04
7834;BME280;3962;42.696;23.354;2023-01-27T11:14:56;94235.41;;;1.64;91.47
7834;BME280;3962;42.696;23.354;2023-01-27T11:17:29;94240.66;;;1.64;91.10
7834;BME280;3962;42.696;23.354;2023-01-27T11:20:03;94228.47;;;1.74;90.47
7834;BME280;3962;42.696;23.354;2023-01-27T11:22:45;94216.06;;;1.76;90.15
7834;BME280;3962;42.696;23.354;2023-01-27T11:25:23;94213.22;;;1.68;90.91
7834;BME280;3962;42.696;23.354;2023-01-27T11:28:02;94216.31;;;1.84;90.13
7834;BME280;3962;42.696;23.354;2023-01-27T11:30:35;94211.34;;;1.59;89.92
7834;BME280;3962;42.696;23.354;2023-01-27T11:33:10;94212.78;;;1.41;91.72
7834;BME280;3962;42.696;23.354;2023-01-27T11:35:39;94202.63;;;1.48;91.37
7834;BME280;3962;42.696;23.354;2023-01-27T11:38:12;94203.59;;;1.25;90.62
7834;BME280;3962;42.696;23.354;2023-01-27T11:40:40;94203.72;;;1.34;91.03
7834;BME280;3962;42.696;23.354;2023-01-27T11:43:13;94210.38;;;1.27;92.11
7834;BME280;3962;42.696;23.354;2023-01-27T11:45:42;94200.25;;;1.23;92.30
7834;BME280;3962;42.696;23.354;2023-01-27T11:48:11;94210.03;;;1.32;92.26
7834;BME280;3962;42.696;23.354;2023-01-27T11:50:41;94210.03;;;1.21;91.43
7834;BME280;3962;42.696;23.354;2023-01-27T11:53:13;94206.94;;;1.27;91.73
7834;BME280;3962;42.696;23.354;2023-01-27T11:55:41;94206.47;;;1.44;92.43
7834;BME280;3962;42.696;23.354;2023-01-27T11:58:13;94201.81;;;1.69;92.05
7834;BME280;3962;42.696;23.354;2023-01-27T12:00:44;94206.56;;;1.53;91.25
7834;BME280;3962;42.696;23.354;2023-01-27T12:03:17;94198.94;;;1.50;91.27
7834;BME280;3962;42.696;23.354;2023-01-27T12:05:53;94199.56;;;1.43;90.38
7834;BME280;3962;42.696;23.354;2023-01-27T12:08:40;94197.41;;;1.59;90.27
7834;BME280;3962;42.696;23.354;2023-01-27T12:11:23;94202.88;;;1.56;90.62
7834;BME280;3962;42.696;23.354;2023-01-27T12:13:53;94205.97;;;1.61;90.30
7834;BME280;3962;42.696;23.354;2023-01-27T12:16:23;94207.06;;;1.47;91.28
7834;BME280;3962;42.696;23.354;2023-01-27T12:18:55;94203.94;;;1.64;91.00
7834;BME280;3962;42.696;23.354;2023-01-27T12:21:34;94205.38;;;1.57;90.77
7834;BME280;3962;42.696;23.354;2023-01-27T12:24:20;94204.69;;;1.55;91.19
7834;BME280;3962;42.696;23.354;2023-01-27T12:26:50;94199.94;;;1.38;91.28
7834;BME280;3962;42.696;23.354;2023-01-27T12:29:20;94213.25;;;1.24;91.00
7834;BME280;3962;42.696;23.354;2023-01-27T12:31:52;94211.81;;;1.42;92.26
7834;BME280;3962;42.696;23.354;2023-01-27T12:34:25;94216.22;;;1.53;92.17
7834;BME280;3962;42.696;23.354;2023-01-27T12:36:54;94216.56;;;1.37;90.64
7834;BME280;3962;42.696;23.354;2023-01-27T12:39:29;94217.16;;;1.41;91.75
7834;BME280;3962;42.696;23.354;2023-01-27T12:41:57;94214.09;;;1.47;92.81
7834;BME280;3962;42.696;23.354;2023-01-27T12:44:24;94218.94;;;1.73;92.58
7834;BME280;3962;42.696;23.354;2023-01-27T12:46:59;94206.41;;;1.88;91.36
7834;BME280;3962;42.696;23.354;2023-01-27T12:49:31;94199.41;;;1.77;91.21
7834;BME280;3962;42.696;23.354;2023-01-27T12:52:02;94209.75;;;1.90;91.37
7834;BME280;3962;42.696;23.354;2023-01-27T12:54:31;94202.50;;;1.71;90.76
7834;BME280;3962;42.696;23.354;2023-01-27T12:57:03;94198.56;;;1.77;91.92
7834;BME280;3962;42.696;23.354;2023-01-27T12:59:31;94205.28;;;1.59;92.93
7834;BME280;3962;42.696;23.354;2023-01-27T13:02:01;94199.31;;;1.46;92.05
7834;BME280;3962;42.696;23.354;2023-01-27T13:04:30;94203.22;;;1.51;93.00
7834;BME280;3962;42.696;23.354;2023-01-27T13:07:04;94193.44;;;1.75;92.88
7834;BME280;3962;42.696;23.354;2023-01-27T13:09:35;94199.28;;;1.79;93.34
7834;BME280;3962;42.696;23.354;2023-01-27T13:12:14;94197.63;;;1.67;93.04
7834;BME280;3962;42.696;23.354;2023-01-27T13:14:42;94203.53;;;2.02;92.63
7834;BME280;3962;42.696;23.354;2023-01-27T13:17:27;94199.94;;;2.14;93.03
7834;BME280;3962;42.696;23.354;2023-01-27T13:19:57;94193.81;;;2.24;92.84
7834;BME280;3962;42.696;23.354;2023-01-27T13:22:28;94204.22;;;2.04;92.47
7834;BME280;3962;42.696;23.354;2023-01-27T13:25:02;94194.25;;;2.29;91.70
7834;BME280;3962;42.696;23.354;2023-01-27T13:27:37;94212.09;;;2.15;90.03
7834;BME280;3962;42.696;23.354;2023-01-27T13:30:12;94203.41;;;1.92;90.95
7834;BME280;3962;42.696;23.354;2023-01-27T13:32:42;94209.63;;;1.91;91.22
7834;BME280;3962;42.696;23.354;2023-01-27T13:35:17;94207.25;;;1.88;92.22
7834;BME280;3962;42.696;23.354;2023-01-27T13:37:49;94216.31;;;1.84;91.76
7834;BME280;3962;42.696;23.354;2023-01-27T13:40:21;94206.41;;;1.88;93.16